sensor_id;sensor_type;location;lat;lon;timestamp;pressure;altitude;pressure_sealevel;temperature;humidity
68580;BME280;55555;52.136;5.424;2023-01-10T00:00:47;101325.91;;;5.06;100.00
68580;BME280;55555;52.136;5.424;2023-01-10T00:03:15;101332.94;;;4.99;100.00
68580;BME280;55555;52.136;5.424;2023-01-10T00:05:42;101333.84;;;4.98;100.00
68580;BME280;55555;52.136;5.424;2023-01-10T00:08:14;101348.78;;;4.98;100.00
68580;BME280;55555;52.136;5.424;2023-01-10T00:10:42;101350.56;;;4.97;100.00
68580;BME280;55555;52.136;5.424;2023-01-10T00:13:13;101361.09;;;4.96;100.00
68580;BME280;55555;52.136;5.424;2023-01-10T00:15:52;101376.00;;;4.98;100.00
68580;BME280;55555;52.136;5.424;2023-01-10T00:18:20;101380.41;;;4.98;100.00
68580;BME280;55555;52.136;5.424;2023-01-10T00:20:48;101385.69;;;4.98;100.00
68580;BME280;55555;52.136;5.424;2023-01-10T00:23:15;101390.97;;;5.01;99.30
68580;BME280;55555;52.136;5.424;2023-01-10T00:25:43;101398.88;;;5.01;99.67
68580;BME280;55555;52.136;5.424;2023-01-10T00:28:11;101399.75;;;5.01;99.81
68580;BME280;55555;52.136;5.424;2023-01-10T00:30:49;101401.50;;;5.07;100.00
68580;BME280;55555;52.136;5.424;2023-01-10T00:33:25;101404.13;;;5.08;99.86
68580;BME280;55555;52.136;5.424;2023-01-10T00:36:01;101400.59;;;5.11;100.00
68580;BME280;55555;52.136;5.424;2023-01-10T00:38:30;101403.25;;;5.11;99.93
68580;BME280;55555;52.136;5.424;2023-01-10T00:41:02;101398.88;;;5.07;100.00
68580;BME280;55555;52.136;5.424;2023-01-10T00:43:49;101405.91;;;5.08;100.00
68580;BME280;55555;52.136;5.424;2023-01-10T00:46:22;101405.03;;;5.06;99.50
68580;BME280;55555;52.136;5.424;2023-01-10T00:48:50;101409.41;;;5.08;100.00
68580;BME280;55555;52.136;5.424;2023-01-10T00:51:18;101412.03;;;5.10;100.00
68580;BME280;55555;52.136;5.424;2023-01-10T00:53:45;101406.75;;;5.11;100.00
68580;BME280;55555;52.136;5.424;2023-01-10T00:56:12;101414.66;;;5.13;100.00
68580;BME280;55555;52.136;5.424;2023-01-10T00:58:39;101422.59;;;5.16;100.00
68580;BME280;55555;52.136;5.424;2023-01-10T01:01:06;101425.22;;;5.19;99.80
68580;BME280;55555;52.136;5.424;2023-01-10T01:03:33;101431.34;;;5.21;100.00
68580;BME280;55555;52.136;5.424;2023-01-10T01:06:05;101428.72;;;5.21;100.00
68580;BME280;55555;52.136;5.424;2023-01-10T01:08:32;101432.22;;;5.22;99.40
68580;BME280;55555;52.136;5.424;2023-01-10T01:11:00;101439.25;;;5.24;100.00
68580;BME280;55555;52.136;5.424;2023-01-10T01:13:27;101436.63;;;5.20;99.97
68580;BME280;55555;52.136;5.424;2023-01-10T01:15:58;101433.97;;;5.20;100.00
68580;BME280;55555;52.136;5.424;2023-01-10T01:18:25;101442.78;;;5.20;99.78
68580;BME280;55555;52.136;5.424;2023-01-10T01:20:55;101454.25;;;5.19;99.58
68580;BME280;55555;52.136;5.424;2023-01-10T01:23:23;101455.09;;;5.21;100.00
68580;BME280;55555;52.136;5.424;2023-01-10T01:25:53;101468.28;;;5.21;100.00
68580;BME280;55555;52.136;5.424;2023-01-10T01:28:21;101470.91;;;5.24;99.68
68580;BME280;55555;52.136;5.424;2023-01-10T01:30:49;101466.50;;;5.23;100.00
68580;BME280;55555;52.136;5.424;2023-01-10T01:33:17;101466.50;;;5.25;100.00
68580;BME280;55555;52.136;5.424;2023-01-10T01:35:46;101466.53;;;5.26;99.78
68580;BME280;55555;52.136;5.424;2023-01-10T01:38:15;101469.16;;;5.29;99.91
68580;BME280;55555;52.136;5.424;2023-01-10T01:40:42;101473.53;;;5.33;100.00
68580;BME280;55555;52.136;5.424;2023-01-10T01:43:21;101474.41;;;5.35;100.00
68580;BME280;55555;52.136;5.424;2023-01-10T01:45:50;101478.81;;;5.35;100.00
68580;BME280;55555;52.136;5.424;2023-01-10T01:48:38;101477.94;;;5.39;100.00
68580;BME280;55555;52.136;5.424;2023-01-10T01:51:15;101486.69;;;5.41;100.00
68580;BME280;55555;52.136;5.424;2023-01-10T01:54:07;101477.91;;;5.43;100.00
68580;BME280;55555;52.136;5.424;2023-01-10T01:56:41;101487.56;;;5.43;99.95
68580;BME280;55555;52.136;5.424;2023-01-10T01:59:16;101491.09;;;5.45;100.00
68580;BME280;55555;52.136;5.424;2023-01-10T02:02:01;101485.81;;;5.42;100.00
68580;BME280;55555;52.136;5.424;2023-01-10T02:04:46;101485.84;;;5.36;100.00
68580;BME280;55555;52.136;5.424;2023-01-10T02:07:20;101492.00;;;5.38;100.00
68580;BME280;55555;52.136;5.424;2023-01-10T02:09:58;101488.47;;;5.34;100.00
68580;BME280;55555;52.136;5.424;2023-01-10T02:12:50;101495.50;;;5.32;100.00
68580;BME280;55555;52.136;5.424;2023-01-10T02:15:20;101485.88;;;5.30;100.00
68580;BME280;55555;52.136;5.424;2023-01-10T02:17:49;101497.28;;;5.32;100.00
68580;BME280;55555;52.136;5.424;2023-01-10T02:20:18;101506.06;;;5.34;100.00
68580;BME280;55555;52.136;5.424;2023-01-10T02:23:02;101498.16;;;5.35;100.00
68580;BME280;55555;52.136;5.424;2023-01-10T02:29:34;101507.81;;;5.41;100.00
68580;BME280;55555;52.136;5.424;2023-01-10T02:32:39;101507.81;;;5.44;100.00
68580;BME280;55555;52.136;5.424;2023-01-10T02:35:33;101517.47;;;5.46;100.00
68580;BME280;55555;52.136;5.424;2023-01-10T02:38:39;101516.59;;;5.47;100.00
68580;BME280;55555;52.136;5.424;2023-01-10T02:44:34;101522.75;;;5.51;100.00
68580;BME280;55555;52.136;5.424;2023-01-10T02:47:12;101527.13;;;5.54;100.00
68580;BME280;55555;52.136;5.424;2023-01-10T02:49:50;101530.66;;;5.56;100.00
68580;BME280;55555;52.136;5.424;2023-01-10T02:52:24;101526.25;;;5.58;100.00
68580;BME280;55555;52.136;5.424;2023-01-10T02:54:56;101526.25;;;5.58;100.00
68580;BME280;55555;52.136;5.424;2023-01-10T02:58:05;101528.88;;;5.61;100.00
68580;BME280;55555;52.136;5.424;2023-01-10T03:01:09;101528.84;;;5.64;100.00
68580;BME280;55555;52.136;5.424;2023-01-10T03:04:21;101538.53;;;5.68;100.00
68580;BME280;55555;52.136;5.424;2023-01-10T03:07:07;101537.66;;;5.70;100.00
68580;BME280;55555;52.136;5.424;2023-01-10T03:10:02;101540.28;;;5.69;100.00
68580;BME280;55555;52.136;5.424;2023-01-10T03:12:35;101550.84;;;5.67;100.00
68580;BME280;55555;52.136;5.424;2023-01-10T03:15:14;101551.75;;;5.69;100.00
68580;BME280;55555;52.136;5.424;2023-01-10T03:17:46;101548.22;;;5.69;100.00
68580;BME280;55555;52.136;5.424;2023-01-10T03:20:18;101552.63;;;5.68;100.00
68580;BME280;55555;52.136;5.424;2023-01-10T03:22:47;101561.41;;;5.66;100.00
68580;BME280;55555;52.136;5.424;2023-01-10T03:25:16;101571.09;;;5.68;100.00
68580;BME280;55555;52.136;5.424;2023-01-10T03:27:54;101567.56;;;5.66;100.00
68580;BME280;55555;52.136;5.424;2023-01-10T03:30:39;101572.84;;;5.69;100.00
68580;BME280;55555;52.136;5.424;2023-01-10T03:33:24;101569.34;;;5.69;100.00
68580;BME280;55555;52.136;5.424;2023-01-10T03:36:09;101579.91;;;5.70;100.00
68580;BME280;55555;52.136;5.424;2023-01-10T03:38:54;101581.66;;;5.68;100.00
68580;BME280;55555;52.136;5.424;2023-01-10T03:44:23;101587.81;;;5.72;100.00
68580;BME280;55555;52.136;5.424;2023-01-10T03:49:59;101596.63;;;5.72;100.00
68580;BME280;55555;52.136;5.424;2023-01-10T03:52:34;101596.59;;;5.74;100.00
68580;BME280;55555;52.136;5.424;2023-01-10T03:55:02;101600.13;;;5.73;100.00
68580;BME280;55555;52.136;5.424;2023-01-10T03:57:30;101597.50;;;5.73;100.00
68580;BME280;55555;52.136;5.424;2023-01-10T03:59:58;101592.22;;;5.71;100.00
68580;BME280;55555;52.136;5.424;2023-01-10T04:02:29;101601.03;;;5.72;100.00
68580;BME280;55555;52.136;5.424;2023-01-10T04:04:57;101602.78;;;5.68;100.00
68580;BME280;55555;52.136;5.424;2023-01-10T04:07:25;101608.94;;;5.70;100.00
68580;BME280;55555;52.136;5.424;2023-01-10T04:09:53;101611.56;;;5.64;100.00
68580;BME280;55555;52.136;5.424;2023-01-10T04:12:20;101613.34;;;5.59;100.00
68580;BME280;55555;52.136;5.424;2023-01-10T04:14:47;101620.41;;;5.59;100.00
68580;BME280;55555;52.136;5.424;2023-01-10T04:17:16;101621.25;;;5.55;100.00
68580;BME280;55555;52.136;5.424;2023-01-10T04:19:44;101622.16;;;5.46;100.00
68580;BME280;55555;52.136;5.424;2023-01-10T04:22:11;101628.31;;;5.43;100.00
68580;BME280;55555;52.136;5.424;2023-01-10T04:24:39;101633.59;;;5.43;100.00
68580;BME280;55555;52.136;5.424;2023-01-10T04:27:06;101633.59;;;5.42;100.00
68580;BME280;55555;52.136;5.424;2023-01-10T04:29:33;101625.69;;;5.39;100.00
68580;BME280;55555;52.136;5.424;2023-01-10T04:32:00;101645.00;;;5.41;100.00
68580;BME280;55555;52.136;5.424;2023-01-10T04:34:27;101650.31;;;5.38;100.00
68580;BME280;55555;52.136;5.424;2023-01-10T04:36:55;101650.31;;;5.35;100.00
68580;BME280;55555;52.136;5.424;2023-01-10T04:39:22;101657.34;;;5.30;100.00
68580;BME280;55555;52.136;5.424;2023-01-10T04:41:49;101661.75;;;5.29;100.00
68580;BME280;55555;52.136;5.424;2023-01-10T04:44:16;101662.59;;;5.11;100.00
68580;BME280;55555;52.136;5.424;2023-01-10T04:46:43;101670.50;;;5.13;100.00
68580;BME280;55555;52.136;5.424;2023-01-10T04:49:10;101674.91;;;5.08;100.00
68580;BME280;55555;52.136;5.424;2023-01-10T04:51:37;101674.03;;;5.04;100.00
68580;BME280;55555;52.136;5.424;2023-01-10T04:54:05;101676.63;;;5.01;100.00
68580;BME280;55555;52.136;5.424;2023-01-10T04:56:33;101674.00;;;4.98;100.00
68580;BME280;55555;52.136;5.424;2023-01-10T04:59:00;101688.03;;;4.90;100.00
68580;BME280;55555;52.136;5.424;2023-01-10T05:01:27;101673.97;;;4.89;100.00
68580;BME280;55555;52.136;5.424;2023-01-10T05:03:54;101673.97;;;4.82;100.00
68580;BME280;55555;52.136;5.424;2023-01-10T05:06:23;101688.88;;;4.80;100.00
68580;BME280;55555;52.136;5.424;2023-01-10T05:08:50;101680.09;;;4.73;100.00
68580;BME280;55555;52.136;5.424;2023-01-10T05:11:17;101689.75;;;4.72;100.00
68580;BME280;55555;52.136;5.424;2023-01-10T05:13:44;101674.78;;;4.68;100.00
68580;BME280;55555;52.136;5.424;2023-01-10T05:16:13;101687.94;;;4.65;100.00
68580;BME280;55555;52.136;5.424;2023-01-10T05:18:41;101678.28;;;4.60;100.00
68580;BME280;55555;52.136;5.424;2023-01-10T05:21:10;101689.66;;;4.56;100.00
68580;BME280;55555;52.136;5.424;2023-01-10T05:23:38;101696.69;;;4.49;100.00
68580;BME280;55555;52.136;5.424;2023-01-10T05:26:15;101707.19;;;4.45;100.00
68580;BME280;55555;52.136;5.424;2023-01-10T05:28:44;101712.44;;;4.45;100.00
68580;BME280;55555;52.136;5.424;2023-01-10T05:31:14;101721.22;;;4.40;100.00
68580;BME280;55555;52.136;5.424;2023-01-10T05:33:48;101739.66;;;4.39;100.00
68580;BME280;55555;52.136;5.424;2023-01-10T05:36:17;101735.28;;;4.39;100.00
68580;BME280;55555;52.136;5.424;2023-01-10T05:38:44;101712.44;;;4.40;100.00
68580;BME280;55555;52.136;5.424;2023-01-10T05:41:12;101719.50;;;4.43;100.00
68580;BME280;55555;52.136;5.424;2023-01-10T05:43:39;101735.28;;;4.44;100.00
68580;BME280;55555;52.136;5.424;2023-01-10T05:46:07;101735.34;;;4.50;100.00
68580;BME280;55555;52.136;5.424;2023-01-10T05:48:35;101745.03;;;4.54;100.00
68580;BME280;55555;52.136;5.424;2023-01-10T05:51:02;101747.66;;;4.59;100.00
68580;BME280;55555;52.136;5.424;2023-01-10T05:53:29;101747.72;;;4.63;100.00
68580;BME280;55555;52.136;5.424;2023-01-10T05:56:00;101753.00;;;4.69;100.00
68580;BME280;55555;52.136;5.424;2023-01-10T05:58:28;101749.47;;;4.70;100.00
68580;BME280;55555;52.136;5.424;2023-01-10T06:00:56;101749.53;;;4.75;100.00
68580;BME280;55555;52.136;5.424;2023-01-10T06:03:24;101749.53;;;4.80;100.00
68580;BME280;55555;52.136;5.424;2023-01-10T06:05:55;101742.50;;;4.82;100.00
68580;BME280;55555;52.136;5.424;2023-01-10T06:08:23;101743.41;;;4.91;100.00
68580;BME280;55555;52.136;5.424;2023-01-10T06:10:50;101757.50;;;4.99;100.00
68580;BME280;55555;52.136;5.424;2023-01-10T06:13:18;101753.97;;;4.99;100.00
68580;BME280;55555;52.136;5.424;2023-01-10T06:15:45;101766.31;;;5.04;100.00
68580;BME280;55555;52.136;5.424;2023-01-10T06:18:13;101754.03;;;5.05;100.00
68580;BME280;55555;52.136;5.424;2023-01-10T06:20:41;101754.03;;;5.11;100.00
68580;BME280;55555;52.136;5.424;2023-01-10T06:23:09;101761.09;;;5.17;100.00
68580;BME280;55555;52.136;5.424;2023-01-10T06:25:37;101766.38;;;5.18;100.00
68580;BME280;55555;52.136;5.424;2023-01-10T06:28:07;101774.28;;;5.21;100.00
68580;BME280;55555;52.136;5.424;2023-01-10T06:30:35;101779.59;;;5.27;100.00
68580;BME280;55555;52.136;5.424;2023-01-10T06:33:06;101778.72;;;5.30;100.00
68580;BME280;55555;52.136;5.424;2023-01-10T06:35:35;101779.56;;;5.30;100.00
68580;BME280;55555;52.136;5.424;2023-01-10T06:38:02;101789.25;;;5.33;100.00
68580;BME280;55555;52.136;5.424;2023-01-10T06:40:29;101789.28;;;5.37;100.00
68580;BME280;55555;52.136;5.424;2023-01-10T06:42:56;101788.41;;;5.41;100.00
68580;BME280;55555;52.136;5.424;2023-01-10T06:45:24;101796.31;;;5.43;100.00
68580;BME280;55555;52.136;5.424;2023-01-10T06:47:51;101792.81;;;5.44;100.00
68580;BME280;55555;52.136;5.424;2023-01-10T06:50:18;101801.63;;;5.46;100.00
68580;BME280;55555;52.136;5.424;2023-01-10T06:52:56;101805.16;;;5.48;100.00
68580;BME280;55555;52.136;5.424;2023-01-10T06:55:25;101808.66;;;5.53;100.00
68580;BME280;55555;52.136;5.424;2023-01-10T06:58:00;101799.88;;;5.54;100.00
68580;BME280;55555;52.136;5.424;2023-01-10T07:00:29;101808.69;;;5.56;100.00
68580;BME280;55555;52.136;5.424;2023-01-10T07:02:58;101811.31;;;5.58;100.00
68580;BME280;55555;52.136;5.424;2023-01-10T07:05:27;101815.72;;;5.60;100.00
68580;BME280;55555;52.136;5.424;2023-01-10T07:07:55;101821.91;;;5.61;100.00
68580;BME280;55555;52.136;5.424;2023-01-10T07:10:23;101827.19;;;5.67;100.00
68580;BME280;55555;52.136;5.424;2023-01-10T07:12:53;101813.97;;;5.67;100.00
68580;BME280;55555;52.136;5.424;2023-01-10T07:15:21;101815.72;;;5.65;100.00
68580;BME280;55555;52.136;5.424;2023-01-10T07:17:48;101813.09;;;5.65;100.00
68580;BME280;55555;52.136;5.424;2023-01-10T07:20:16;101820.13;;;5.64;100.00
68580;BME280;55555;52.136;5.424;2023-01-10T07:22:43;101827.16;;;5.65;100.00
68580;BME280;55555;52.136;5.424;2023-01-10T07:25:11;101833.31;;;5.64;100.00
68580;BME280;55555;52.136;5.424;2023-01-10T07:27:38;101844.75;;;5.65;100.00
68580;BME280;55555;52.136;5.424;2023-01-10T07:30:09;101846.53;;;5.64;100.00
68580;BME280;55555;52.136;5.424;2023-01-10T07:32:36;101858.88;;;5.62;100.00
68580;BME280;55555;52.136;5.424;2023-01-10T07:35:03;101865.88;;;5.63;100.00
68580;BME280;55555;52.136;5.424;2023-01-10T07:37:31;101868.53;;;5.65;100.00
68580;BME280;55555;52.136;5.424;2023-01-10T07:39:58;101865.00;;;5.64;100.00
68580;BME280;55555;52.136;5.424;2023-01-10T07:42:25;101878.22;;;5.69;100.00
68580;BME280;55555;52.136;5.424;2023-01-10T07:44:52;101887.03;;;5.68;100.00
68580;BME280;55555;52.136;5.424;2023-01-10T07:47:19;101884.41;;;5.71;100.00
68580;BME280;55555;52.136;5.424;2023-01-10T07:49:46;101875.59;;;5.72;100.00
68580;BME280;55555;52.136;5.424;2023-01-10T07:52:13;101877.34;;;5.62;100.00
68580;BME280;55555;52.136;5.424;2023-01-10T07:54:40;101880.84;;;5.64;100.00
68580;BME280;55555;52.136;5.424;2023-01-10T07:57:07;101883.47;;;5.63;100.00
68580;BME280;55555;52.136;5.424;2023-01-10T07:59:34;101887.91;;;5.62;100.00
68580;BME280;55555;52.136;5.424;2023-01-10T08:02:01;101891.38;;;5.63;100.00
68580;BME280;55555;52.136;5.424;2023-01-10T08:04:29;101890.53;;;5.64;100.00
68580;BME280;55555;52.136;5.424;2023-01-10T08:06:56;101887.00;;;5.57;100.00
68580;BME280;55555;52.136;5.424;2023-01-10T08:09:23;101897.56;;;5.60;100.00
68580;BME280;55555;52.136;5.424;2023-01-10T08:11:50;101895.78;;;5.64;100.00
68580;BME280;55555;52.136;5.424;2023-01-10T08:14:17;101911.63;;;5.58;100.00
68580;BME280;55555;52.136;5.424;2023-01-10T08:16:44;101900.22;;;5.60;100.00
68580;BME280;55555;52.136;5.424;2023-01-10T08:19:11;101906.38;;;5.61;100.00
68580;BME280;55555;52.136;5.424;2023-01-10T08:21:44;101900.19;;;5.57;100.00
68580;BME280;55555;52.136;5.424;2023-01-10T08:24:11;101908.06;;;5.53;100.00
68580;BME280;55555;52.136;5.424;2023-01-10T08:26:38;101907.25;;;5.61;100.00
68580;BME280;55555;52.136;5.424;2023-01-10T08:29:05;101894.03;;;5.60;100.00
68580;BME280;55555;52.136;5.424;2023-01-10T08:31:32;101907.22;;;5.55;100.00
68580;BME280;55555;52.136;5.424;2023-01-10T08:33:59;101903.72;;;5.61;100.00
68580;BME280;55555;52.136;5.424;2023-01-10T08:36:27;101908.13;;;5.62;100.00
68580;BME280;55555;52.136;5.424;2023-01-10T08:38:55;101899.34;;;5.61;100.00
68580;BME280;55555;52.136;5.424;2023-01-10T08:41:22;101904.63;;;5.67;100.00
68580;BME280;55555;52.136;5.424;2023-01-10T08:43:50;101908.13;;;5.65;100.00
68580;BME280;55555;52.136;5.424;2023-01-10T08:46:18;101899.34;;;5.67;100.00
68580;BME280;55555;52.136;5.424;2023-01-10T08:48:46;101901.06;;;5.64;100.00
68580;BME280;55555;52.136;5.424;2023-01-10T08:51:15;101897.56;;;5.62;100.00
68580;BME280;55555;52.136;5.424;2023-01-10T08:53:43;101887.03;;;5.62;100.00
68580;BME280;55555;52.136;5.424;2023-01-10T08:56:10;101890.53;;;5.64;100.00
68580;BME280;55555;52.136;5.424;2023-01-10T08:58:37;101890.53;;;5.65;100.00
68580;BME280;55555;52.136;5.424;2023-01-10T09:01:05;101881.75;;;5.68;100.00
68580;BME280;55555;52.136;5.424;2023-01-10T09:03:33;101887.91;;;5.68;100.00
68580;BME280;55555;52.136;5.424;2023-01-10T09:06:01;101882.63;;;5.68;100.00
68580;BME280;55555;52.136;5.424;2023-01-10T09:08:28;101880.88;;;5.69;100.00
68580;BME280;55555;52.136;5.424;2023-01-10T09:10:58;101893.19;;;5.70;100.00
68580;BME280;55555;52.136;5.424;2023-01-10T09:13:26;101880.84;;;5.73;100.00
68580;BME280;55555;52.136;5.424;2023-01-10T09:15:55;101885.28;;;5.76;100.00
68580;BME280;55555;52.136;5.424;2023-01-10T09:18:23;101888.81;;;5.78;100.00
68580;BME280;55555;52.136;5.424;2023-01-10T09:20:52;101899.38;;;5.72;100.00
68580;BME280;55555;52.136;5.424;2023-01-10T09:23:21;101894.06;;;5.75;100.00
68580;BME280;55555;52.136;5.424;2023-01-10T09:25:51;101887.03;;;5.75;100.00
68580;BME280;55555;52.136;5.424;2023-01-10T09:28:20;101883.53;;;5.72;99.35
68580;BME280;55555;52.136;5.424;2023-01-10T09:30:50;101885.28;;;5.73;99.88
68580;BME280;55555;52.136;5.424;2023-01-10T09:33:17;101885.28;;;5.73;100.00
68580;BME280;55555;52.136;5.424;2023-01-10T09:35:45;101888.78;;;5.69;99.40
68580;BME280;55555;52.136;5.424;2023-01-10T09:38:15;101893.22;;;5.73;99.79
68580;BME280;55555;52.136;5.424;2023-01-10T09:46:36;101885.31;;;5.82;100.00
68580;BME280;55555;52.136;5.424;2023-01-10T09:52:01;101885.31;;;5.83;100.00
68580;BME280;55555;52.136;5.424;2023-01-10T09:54:38;101879.09;;;5.75;99.38
68580;BME280;55555;52.136;5.424;2023-01-10T09:57:15;101884.44;;;5.83;100.00
68580;BME280;55555;52.136;5.424;2023-01-10T09:59:45;101878.25;;;5.78;99.72
68580;BME280;55555;52.136;5.424;2023-01-10T10:02:33;101891.47;;;5.81;99.29
68580;BME280;55555;52.136;5.424;2023-01-10T10:05:24;101906.41;;;5.85;99.25
68580;BME280;55555;52.136;5.424;2023-01-10T10:07:54;101890.59;;;5.82;99.54
68580;BME280;55555;52.136;5.424;2023-01-10T10:10:26;101889.69;;;5.84;99.00
68580;BME280;55555;52.136;5.424;2023-01-10T10:19:50;101880.00;;;5.85;99.87
68580;BME280;55555;52.136;5.424;2023-01-10T10:29:01;101873.84;;;5.86;99.01
68580;BME280;55555;52.136;5.424;2023-01-10T10:32:17;101874.78;;;5.90;99.62
68580;BME280;55555;52.136;5.424;2023-01-10T10:35:01;101865.97;;;5.97;99.40
68580;BME280;55555;52.136;5.424;2023-01-10T10:37:35;101859.81;;;5.92;98.07
68580;BME280;55555;52.136;5.424;2023-01-10T10:40:35;101861.59;;;5.91;98.71
68580;BME280;55555;52.136;5.424;2023-01-10T10:43:32;101864.22;;;5.91;98.55
68580;BME280;55555;52.136;5.424;2023-01-10T10:46:06;101857.16;;;5.89;98.96
68580;BME280;55555;52.136;5.424;2023-01-10T10:48:47;101857.16;;;5.89;99.30
68580;BME280;55555;52.136;5.424;2023-01-10T10:54:05;101843.03;;;5.86;98.18
68580;BME280;55555;52.136;5.424;2023-01-10T10:56:34;101843.03;;;5.85;97.92
68580;BME280;55555;52.136;5.424;2023-01-10T10:59:03;101842.16;;;5.81;97.76
68580;BME280;55555;52.136;5.424;2023-01-10T11:01:30;101831.59;;;5.81;98.31
68580;BME280;55555;52.136;5.424;2023-01-10T11:04:04;101828.94;;;5.84;98.04
68580;BME280;55555;52.136;5.424;2023-01-10T11:06:36;101830.72;;;5.85;99.29
68580;BME280;55555;52.136;5.424;2023-01-10T11:09:07;101821.91;;;5.85;99.02
68580;BME280;55555;52.136;5.424;2023-01-10T11:11:42;101816.66;;;5.83;99.17
68580;BME280;55555;52.136;5.424;2023-01-10T11:14:12;101819.28;;;5.82;98.59
68580;BME280;55555;52.136;5.424;2023-01-10T11:16:41;101807.81;;;5.77;97.54
68580;BME280;55555;52.136;5.424;2023-01-10T11:21:54;101814.00;;;5.83;98.60
68580;BME280;55555;52.136;5.424;2023-01-10T11:24:37;101811.38;;;5.88;98.42
68580;BME280;55555;52.136;5.424;2023-01-10T11:27:15;101810.50;;;5.83;98.08
68580;BME280;55555;52.136;5.424;2023-01-10T11:30:00;101809.63;;;5.89;98.40
68580;BME280;55555;52.136;5.424;2023-01-10T11:32:35;101807.81;;;5.86;98.16
68580;BME280;55555;52.136;5.424;2023-01-10T11:35:08;101804.31;;;5.87;98.43
68580;BME280;55555;52.136;5.424;2023-01-10T11:37:57;101806.13;;;5.90;98.84
68580;BME280;55555;52.136;5.424;2023-01-10T11:40:34;101795.56;;;5.90;97.89
68580;BME280;55555;52.136;5.424;2023-01-10T11:46:17;101777.06;;;5.93;98.52
68580;BME280;55555;52.136;5.424;2023-01-10T11:48:59;101784.13;;;5.92;98.07
68580;BME280;55555;52.136;5.424;2023-01-10T11:51:35;101785.00;;;5.93;97.84
68580;BME280;55555;52.136;5.424;2023-01-10T11:54:14;101783.22;;;5.92;97.79
68580;BME280;55555;52.136;5.424;2023-01-10T11:56:53;101785.84;;;5.96;98.01
68580;BME280;55555;52.136;5.424;2023-01-10T11:59:22;101781.47;;;6.00;97.82
68580;BME280;55555;52.136;5.424;2023-01-10T12:02:02;101776.19;;;5.98;97.84
68580;BME280;55555;52.136;5.424;2023-01-10T12:04:33;101773.53;;;6.00;97.74
68580;BME280;55555;52.136;5.424;2023-01-10T12:07:10;101770.03;;;6.02;97.73
68580;BME280;55555;52.136;5.424;2023-01-10T12:09:39;101763.88;;;6.03;98.41
68580;BME280;55555;52.136;5.424;2023-01-10T12:12:24;101762.09;;;6.05;98.63
68580;BME280;55555;52.136;5.424;2023-01-10T12:14:55;101746.25;;;6.05;97.90
68580;BME280;55555;52.136;5.424;2023-01-10T12:17:30;101739.19;;;6.10;98.01
68580;BME280;55555;52.136;5.424;2023-01-10T12:20:00;101741.81;;;6.07;98.01
68580;BME280;55555;52.136;5.424;2023-01-10T12:22:34;101732.16;;;6.11;98.21
68580;BME280;55555;52.136;5.424;2023-01-10T12:25:19;101731.25;;;6.07;97.52
68580;BME280;55555;52.136;5.424;2023-01-10T12:27:48;101712.78;;;6.12;97.09
68580;BME280;55555;52.136;5.424;2023-01-10T12:30:19;101711.91;;;6.13;97.51
68580;BME280;55555;52.136;5.424;2023-01-10T12:33:00;101716.28;;;6.18;97.56
68580;BME280;55555;52.136;5.424;2023-01-10T12:35:42;101707.50;;;6.16;98.67
68580;BME280;55555;52.136;5.424;2023-01-10T12:38:30;101688.09;;;6.20;97.49
68580;BME280;55555;52.136;5.424;2023-01-10T12:48:08;101687.22;;;6.26;98.00
68580;BME280;55555;52.136;5.424;2023-01-10T12:50:45;101682.81;;;6.27;96.44
68580;BME280;55555;52.136;5.424;2023-01-10T12:53:23;101686.31;;;6.27;96.14
68580;BME280;55555;52.136;5.424;2023-01-10T12:55:54;101673.97;;;6.34;96.45
68580;BME280;55555;52.136;5.424;2023-01-10T12:58:34;101674.84;;;6.34;96.80
68580;BME280;55555;52.136;5.424;2023-01-10T13:01:06;101672.19;;;6.33;97.03
68580;BME280;55555;52.136;5.424;2023-01-10T13:03:34;101667.78;;;6.36;97.00
68580;BME280;55555;52.136;5.424;2023-01-10T13:06:02;101658.97;;;6.36;97.39
68580;BME280;55555;52.136;5.424;2023-01-10T13:08:32;101661.59;;;6.39;97.11
68580;BME280;55555;52.136;5.424;2023-01-10T13:11:01;101651.94;;;6.38;96.90
68580;BME280;55555;52.136;5.424;2023-01-10T13:13:34;101640.44;;;6.39;96.26
68580;BME280;55555;52.136;5.424;2023-01-10T13:16:30;101635.16;;;6.42;96.30
68580;BME280;55555;52.136;5.424;2023-01-10T13:19:25;101627.22;;;6.40;95.88
68580;BME280;55555;52.136;5.424;2023-01-10T13:22:17;101623.72;;;6.41;95.84
68580;BME280;55555;52.136;5.424;2023-01-10T13:24:57;101618.41;;;6.46;96.14
68580;BME280;55555;52.136;5.424;2023-01-10T13:27:30;101614.88;;;6.47;96.78
68580;BME280;55555;52.136;5.424;2023-01-10T13:29:59;101613.97;;;6.49;96.71
68580;BME280;55555;52.136;5.424;2023-01-10T13:32:33;101613.97;;;6.55;96.53
68580;BME280;55555;52.136;5.424;2023-01-10T13:35:14;101597.22;;;6.56;96.10
68580;BME280;55555;52.136;5.424;2023-01-10T13:37:44;101592.81;;;6.57;96.07
68580;BME280;55555;52.136;5.424;2023-01-10T13:40:26;101592.81;;;6.55;95.46
68580;BME280;55555;52.136;5.424;2023-01-10T13:51:18;101589.22;;;6.67;95.26
68580;BME280;55555;52.136;5.424;2023-01-10T14:03:40;101565.38;;;6.72;95.05
68580;BME280;55555;52.136;5.424;2023-01-10T14:06:19;101564.47;;;6.77;95.30
68580;BME280;55555;52.136;5.424;2023-01-10T14:14:31;101556.53;;;6.74;95.90
68580;BME280;55555;52.136;5.424;2023-01-10T14:17:28;101550.38;;;6.75;95.47
68580;BME280;55555;52.136;5.424;2023-01-10T14:20:14;101546.84;;;6.75;96.10
68580;BME280;55555;52.136;5.424;2023-01-10T14:25:42;101539.84;;;6.69;97.28
68580;BME280;55555;52.136;5.424;2023-01-10T14:28:32;101531.09;;;6.58;97.59
68580;BME280;55555;52.136;5.424;2023-01-10T14:31:20;101519.66;;;6.56;97.25
68580;BME280;55555;52.136;5.424;2023-01-10T14:33:49;101509.09;;;6.51;97.72
68580;BME280;55555;52.136;5.424;2023-01-10T14:36:22;101500.34;;;6.42;97.66
68580;BME280;55555;52.136;5.424;2023-01-10T14:39:04;101510.94;;;6.43;97.98